createdAt,value
2022-08-16T00:03:37.637Z,5.57
2022-08-16T00:06:05.005Z,5.32
2022-08-16T00:08:37.404Z,5.50
2022-08-16T00:11:07.623Z,5.60
2022-08-16T00:13:41.636Z,5.85
2022-08-16T00:17:05.885Z,5.32
2022-08-16T00:18:57.010Z,4.72
2022-08-16T00:21:26.159Z,5.25
2022-08-16T00:23:56.507Z,5.47
2022-08-16T00:26:35.446Z,5.10
2022-08-16T00:29:12.698Z,5.28
2022-08-16T00:32:00.460Z,5.45
2022-08-16T00:34:41.287Z,5.32
2022-08-16T00:37:12.024Z,4.93
2022-08-16T00:39:43.898Z,5.13
2022-08-16T00:42:10.927Z,5.20
2022-08-16T00:44:39.847Z,5.22
2022-08-16T00:47:16.387Z,5.15
2022-08-16T00:49:44.777Z,4.70
2022-08-16T00:52:29.450Z,5.90
2022-08-16T00:54:56.890Z,6.10
2022-08-16T00:57:24.189Z,6.65
2022-08-16T00:59:58.681Z,5.20
2022-08-16T01:02:31.504Z,5.82
2022-08-16T01:05:04.606Z,4.82
2022-08-16T01:07:51.883Z,5.10
2022-08-16T01:10:31.831Z,4.57
2022-08-16T01:13:19.202Z,4.85
2022-08-16T01:15:52.854Z,5.13
2022-08-16T01:18:40.456Z,5.30
2022-08-16T01:21:40.788Z,5.03
2022-08-16T01:24:52.119Z,5.30
2022-08-16T01:27:46.280Z,5.70
2022-08-16T01:30:19.663Z,6.10
2022-08-16T01:33:01.243Z,6.30
2022-08-16T01:35:36.221Z,6.40
2022-08-16T01:38:35.602Z,6.53
2022-08-16T01:41:19.194Z,8.45
2022-08-16T01:43:53.693Z,7.93
2022-08-16T01:46:39.213Z,6.78
2022-08-16T01:49:18.921Z,6.75
2022-08-16T01:51:55.251Z,6.93
2022-08-16T01:54:31.262Z,7.18
2022-08-16T01:56:59.260Z,6.43
2022-08-16T01:59:26.343Z,7.00
2022-08-16T02:01:59.998Z,6.50
2022-08-16T02:04:48.410Z,6.25
2022-08-16T02:07:18.620Z,6.50
2022-08-16T02:09:57.031Z,6.60
2022-08-16T02:12:50.244Z,6.55
2022-08-16T02:15:24.911Z,6.60
2022-08-16T02:17:54.083Z,5.78
2022-08-16T02:20:26.329Z,5.90
2022-08-16T02:22:58.651Z,6.28
2022-08-16T02:25:50.957Z,6.15
2022-08-16T02:28:17.188Z,5.30
2022-08-16T02:30:50.530Z,4.95
2022-08-16T02:33:18.594Z,5.70
2022-08-16T02:35:53.935Z,5.50
2022-08-16T02:38:26.722Z,5.03
2022-08-16T02:40:54.852Z,5.50
2022-08-16T02:43:26.781Z,5.43
2022-08-16T02:45:54.880Z,6.05
2022-08-16T02:48:30.615Z,5.57
2022-08-16T02:51:11.001Z,5.95
2022-08-16T02:53:45.491Z,5.68
2022-08-16T02:56:15.988Z,5.90
2022-08-16T02:58:48.551Z,6.15
2022-08-16T03:01:25.354Z,5.45
2022-08-16T03:04:40.667Z,5.50
2022-08-16T03:06:56.781Z,5.28
2022-08-16T03:09:25.474Z,5.22
2022-08-16T03:11:57.382Z,4.90
2022-08-16T03:14:25.372Z,5.20
2022-08-16T03:16:59.238Z,5.80
2022-08-16T03:19:48.433Z,5.90
2022-08-16T03:22:28.677Z,5.32
2022-08-16T03:24:58.406Z,4.88
2022-08-16T03:27:30.986Z,5.38
2022-08-16T03:30:00.802Z,5.50
2022-08-16T03:32:27.701Z,5.68
2022-08-16T03:34:55.192Z,5.60
2022-08-16T03:37:22.331Z,5.72
2022-08-16T03:39:49.751Z,5.30
2022-08-16T03:42:23.972Z,5.80
2022-08-16T03:44:51.082Z,4.88
2022-08-16T03:47:20.571Z,5.60
2022-08-16T03:49:51.771Z,5.38
2022-08-16T03:52:23.551Z,6.25
2022-08-16T03:54:57.759Z,5.40
2022-08-16T03:57:32.138Z,5.90
2022-08-16T04:00:35.401Z,6.10
2022-08-16T04:03:08.646Z,5.72
2022-08-16T04:05:46.736Z,7.18
2022-08-16T04:08:23.184Z,5.93
2022-08-16T04:10:53.328Z,5.63
2022-08-16T04:13:59.891Z,5.65
2022-08-16T04:16:26.179Z,5.38
2022-08-16T04:19:02.496Z,4.93
2022-08-16T04:24:00.355Z,5.25
2022-08-16T04:26:31.198Z,5.47
2022-08-16T04:29:14.796Z,5.65
2022-08-16T04:31:45.472Z,4.75
2022-08-16T04:34:13.005Z,4.70
2022-08-16T04:36:40.493Z,5.15
2022-08-16T04:39:07.782Z,5.20
2022-08-16T04:41:37.357Z,5.20
2022-08-16T04:44:31.089Z,4.88
2022-08-16T04:47:03.463Z,5.50
2022-08-16T04:49:45.735Z,4.72
2022-08-16T04:52:33.496Z,5.93
2022-08-16T04:55:00.604Z,5.68
2022-08-16T04:57:30.144Z,5.60
2022-08-16T04:59:57.452Z,5.57
2022-08-16T05:02:42.201Z,6.28
2022-08-16T05:05:17.645Z,4.97
2022-08-16T05:07:58.370Z,5.63
2022-08-16T05:10:29.556Z,5.03
2022-08-16T05:12:58.222Z,5.18
2022-08-16T05:15:25.912Z,5.65
2022-08-16T05:17:58.937Z,4.80
2022-08-16T05:20:38.407Z,4.85
2022-08-16T05:23:13.755Z,4.93
2022-08-16T05:25:48.782Z,5.43
2022-08-16T05:28:17.993Z,5.03
2022-08-16T05:30:45.346Z,5.47
2022-08-16T05:33:18.305Z,4.50
2022-08-16T05:35:55.230Z,4.75
2022-08-16T05:38:32.766Z,5.10
2022-08-16T05:41:07.305Z,4.95
2022-08-16T05:43:42.951Z,5.68
2022-08-16T05:46:30.914Z,4.47
2022-08-16T05:49:09.133Z,5.60
2022-08-16T05:51:40.085Z,4.40
2022-08-16T05:54:11.527Z,4.88
2022-08-16T05:56:43.172Z,4.47
2022-08-16T05:59:10.773Z,4.43
2022-08-16T06:01:39.054Z,4.50
2022-08-16T06:04:13.531Z,4.43
2022-08-16T06:06:57.036Z,4.63
2022-08-16T06:09:43.798Z,4.40
2022-08-16T06:12:26.744Z,4.85
2022-08-16T06:15:04.529Z,4.40
2022-08-16T06:17:42.901Z,4.32
2022-08-16T06:20:35.243Z,4.35
2022-08-16T06:23:17.125Z,4.57
2022-08-16T06:25:52.943Z,4.03
2022-08-16T06:28:34.817Z,4.50
2022-08-16T06:31:05.104Z,4.68
2022-08-16T06:33:41.317Z,4.45
2022-08-16T06:36:13.993Z,4.05
2022-08-16T06:38:55.558Z,4.65
2022-08-16T06:41:27.374Z,4.60
2022-08-16T06:43:55.434Z,4.22
2022-08-16T06:46:34.347Z,4.00
2022-08-16T06:49:05.177Z,4.63
2022-08-16T06:51:45.998Z,3.95
2022-08-16T06:54:15.109Z,3.85
2022-08-16T06:56:42.747Z,3.92
2022-08-16T06:59:10.940Z,3.97
2022-08-16T07:01:44.713Z,3.72
2022-08-16T07:04:31.670Z,3.60
2022-08-16T07:06:59.670Z,3.60
2022-08-16T07:09:29.579Z,3.55
2022-08-16T07:12:03.467Z,3.60
2022-08-16T07:14:33.068Z,3.60
2022-08-16T07:17:00.158Z,3.60
2022-08-16T07:20:01.323Z,3.63
2022-08-16T07:22:38.316Z,3.60
2022-08-16T07:25:08.408Z,3.88
2022-08-16T07:27:37.325Z,3.78
2022-08-16T07:30:39.636Z,3.65
2022-08-16T07:32:56.298Z,3.80
2022-08-16T07:35:23.568Z,3.90
2022-08-16T07:37:50.470Z,3.70
2022-08-16T07:40:17.597Z,3.78
2022-08-16T07:42:44.569Z,3.97
2022-08-16T07:45:13.067Z,3.92
2022-08-16T07:47:41.993Z,4.05
2022-08-16T07:50:09.947Z,3.78
2022-08-16T07:52:56.807Z,4.40
2022-08-16T07:55:27.247Z,3.72
2022-08-16T07:57:59.957Z,3.20
2022-08-16T08:00:28.587Z,6.00
2022-08-16T08:02:59.857Z,4.50
2022-08-16T08:05:35.786Z,3.72
2022-08-16T08:08:11.905Z,3.00
2022-08-16T08:10:52.765Z,3.38
2022-08-16T08:13:19.676Z,3.38
2022-08-16T08:16:07.106Z,3.38
2022-08-16T08:18:50.258Z,3.20
2022-08-16T08:21:27.322Z,3.75
2022-08-16T08:23:56.806Z,3.95
2022-08-16T08:26:24.655Z,3.45
2022-08-16T08:28:51.795Z,3.28
2022-08-16T08:31:18.876Z,3.45
2022-08-16T08:33:51.298Z,3.30
2022-08-16T08:36:33.059Z,3.40
2022-08-16T08:39:00.735Z,3.38
2022-08-16T08:41:29.096Z,3.00
2022-08-16T08:43:57.574Z,4.90
2022-08-16T08:46:25.943Z,3.70
2022-08-16T08:49:00.125Z,3.70
2022-08-16T08:51:35.900Z,4.80
2022-08-16T08:54:09.581Z,3.03
2022-08-16T08:56:45.667Z,3.38
2022-08-16T08:59:19.803Z,3.30
2022-08-16T09:01:58.148Z,3.17
2022-08-16T09:04:27.688Z,3.20
2022-08-16T09:06:55.905Z,3.30
2022-08-16T09:09:25.533Z,3.33
2022-08-16T09:12:06.351Z,2.85
2022-08-16T09:14:35.543Z,3.28
2022-08-16T09:17:14.210Z,3.45
2022-08-16T09:19:55.145Z,3.38
2022-08-16T09:22:25.205Z,2.90
2022-08-16T09:24:58.126Z,3.10
2022-08-16T09:27:57.290Z,3.85
2022-08-16T09:30:34.535Z,3.22
2022-08-16T09:33:11.947Z,3.30
2022-08-16T09:35:39.452Z,3.33
2022-08-16T09:38:10.107Z,3.38
2022-08-16T09:40:44.183Z,2.90
2022-08-16T09:43:46.311Z,2.88
2022-08-16T09:46:02.701Z,2.65
2022-08-16T09:48:44.036Z,2.92
2022-08-16T09:51:13.323Z,2.83
2022-08-16T09:53:42.055Z,2.65
2022-08-16T09:56:27.756Z,3.47
2022-08-16T09:59:04.774Z,2.88
2022-08-16T10:01:34.803Z,2.80
2022-08-16T10:04:04.187Z,2.95
2022-08-16T10:06:34.155Z,2.90
2022-08-16T10:09:08.194Z,3.05
2022-08-16T10:11:56.982Z,3.13
2022-08-16T10:14:40.831Z,2.63
2022-08-16T10:17:13.182Z,3.05
2022-08-16T10:19:40.171Z,2.97
2022-08-16T10:22:07.153Z,3.00
2022-08-16T10:24:34.499Z,3.10
2022-08-16T10:27:26.094Z,2.67
2022-08-16T10:29:59.399Z,3.35
2022-08-16T10:32:32.219Z,2.97
2022-08-16T10:34:59.624Z,3.15
2022-08-16T10:37:32.767Z,3.00
2022-08-16T10:40:28.390Z,2.97
2022-08-16T10:42:56.672Z,3.30
2022-08-16T10:46:00.255Z,3.17
2022-08-16T10:48:31.307Z,3.28
2022-08-16T10:50:59.270Z,2.63
2022-08-16T10:53:32.343Z,2.80
2022-08-16T10:56:51.700Z,3.20
2022-08-16T10:59:29.622Z,2.70
2022-08-16T11:02:21.686Z,2.92
2022-08-16T11:12:56.534Z,2.65
2022-08-16T11:15:24.633Z,2.80
2022-08-16T11:20:49.361Z,2.72
2022-08-16T11:23:18.422Z,2.70
2022-08-16T11:26:10.445Z,2.40
2022-08-16T11:31:29.793Z,2.95
2022-08-16T11:34:00.373Z,2.83
2022-08-16T11:36:28.494Z,2.95
2022-08-16T11:38:58.825Z,2.42
2022-08-16T11:41:30.813Z,2.75
2022-08-16T11:43:57.934Z,2.63
2022-08-16T11:46:44.772Z,2.60
2022-08-16T11:49:13.836Z,3.17
2022-08-16T11:51:44.237Z,3.08
2022-08-16T11:54:20.770Z,3.75
2022-08-16T11:56:52.732Z,3.72
2022-08-16T11:59:28.512Z,2.73
2022-08-16T12:02:04.448Z,2.88
2022-08-16T12:04:46.644Z,2.72
2022-08-16T12:07:24.104Z,2.92
2022-08-16T12:09:54.876Z,3.22
2022-08-16T12:12:23.937Z,2.72
2022-08-16T12:15:00.079Z,2.42
2022-08-16T12:17:31.479Z,3.50
2022-08-16T12:20:01.121Z,2.83
2022-08-16T12:22:28.814Z,2.80
2022-08-16T12:24:55.834Z,2.67
2022-08-16T12:27:24.980Z,3.08
2022-08-16T12:29:58.646Z,3.30
2022-08-16T12:32:38.258Z,3.00
2022-08-16T12:35:12.350Z,3.03
2022-08-16T12:37:41.654Z,3.78
2022-08-16T12:40:22.453Z,3.20
2022-08-16T12:42:54.854Z,2.92
2022-08-16T12:45:29.335Z,3.03
2022-08-16T12:48:33.819Z,2.90
2022-08-16T12:54:04.526Z,3.30
2022-08-16T12:56:35.706Z,2.85
2022-08-16T12:59:11.620Z,3.03
2022-08-16T13:04:12.043Z,2.92
2022-08-16T13:06:49.010Z,3.15
2022-08-16T13:09:21.484Z,2.95
2022-08-16T13:12:19.967Z,2.65
2022-08-16T13:14:50.168Z,2.88
2022-08-16T13:17:23.839Z,2.83
2022-08-16T13:22:44.985Z,3.63
2022-08-16T13:25:19.425Z,2.88
2022-08-16T13:30:36.221Z,3.72
2022-08-16T13:33:12.367Z,2.72
2022-08-16T13:38:24.679Z,2.80
2022-08-16T13:40:57.834Z,3.10
2022-08-16T13:43:28.892Z,2.90
2022-08-16T13:46:04.487Z,2.97
2022-08-16T13:48:42.659Z,3.30
2022-08-16T13:51:17.986Z,3.60
2022-08-16T13:53:59.174Z,3.03
2022-08-16T13:56:34.465Z,3.00
2022-08-16T13:59:19.971Z,2.63
2022-08-16T14:01:54.748Z,3.00
2022-08-16T14:04:28.419Z,3.10
2022-08-16T14:06:57.995Z,2.72
2022-08-16T14:09:27.118Z,4.22
2022-08-16T14:11:55.131Z,3.17
2022-08-16T14:14:28.848Z,2.83
2022-08-16T14:17:02.193Z,3.00
2022-08-16T14:19:30.060Z,3.30
2022-08-16T14:22:13.404Z,3.10
2022-08-16T14:24:47.137Z,2.90
2022-08-16T14:27:17.152Z,2.30
2022-08-16T14:29:45.671Z,2.60
2022-08-16T14:32:33.705Z,3.08
2022-08-16T14:35:07.458Z,2.58
2022-08-16T14:37:35.777Z,2.67
2022-08-16T14:40:04.471Z,3.17
2022-08-16T14:42:32.113Z,2.67
2022-08-16T14:45:00.444Z,2.40
2022-08-16T14:47:34.380Z,2.92
2022-08-16T14:50:02.344Z,3.17
2022-08-16T14:52:54.061Z,2.75
2022-08-16T14:58:35.064Z,2.78
2022-08-16T15:01:13.696Z,3.97
2022-08-16T15:03:44.683Z,3.33
2022-08-16T15:06:13.198Z,3.00
2022-08-16T15:08:45.893Z,3.47
2022-08-16T15:11:18.498Z,2.88
2022-08-16T15:13:48.485Z,3.38
2022-08-16T15:16:18.995Z,3.25
2022-08-16T15:18:46.878Z,3.65
2022-08-16T15:21:14.023Z,3.05
2022-08-16T15:23:41.354Z,2.70
2022-08-16T15:26:08.983Z,2.92
2022-08-16T15:28:38.257Z,3.10
2022-08-16T15:31:08.663Z,2.60
2022-08-16T15:33:44.333Z,3.30
2022-08-16T15:36:31.946Z,2.77
2022-08-16T15:39:07.794Z,2.80
2022-08-16T15:41:47.948Z,3.60
2022-08-16T15:44:22.445Z,3.22
2022-08-16T15:46:56.633Z,3.00
2022-08-16T15:52:18.501Z,2.85
2022-08-16T15:54:53.401Z,2.70
2022-08-16T15:57:27.644Z,3.55
2022-08-16T15:59:55.822Z,3.38
2022-08-16T16:02:29.653Z,3.65
2022-08-16T16:05:00.719Z,3.30
2022-08-16T16:07:30.075Z,3.90
2022-08-16T16:09:59.386Z,3.90
2022-08-16T16:12:50.942Z,3.22
2022-08-16T16:15:22.945Z,3.22
2022-08-16T16:17:50.735Z,3.33
2022-08-16T16:20:21.472Z,3.95
2022-08-16T16:22:50.186Z,3.40
2022-08-16T16:25:18.751Z,3.53
2022-08-16T16:27:46.870Z,3.17
2022-08-16T16:30:33.331Z,2.92
2022-08-16T16:33:15.486Z,3.58
2022-08-16T16:35:55.467Z,3.67
2022-08-16T16:38:29.072Z,3.05
2022-08-16T16:41:00.127Z,3.20
2022-08-16T16:43:31.606Z,3.97
2022-08-16T16:46:01.699Z,4.75
2022-08-16T16:48:34.900Z,4.35
2022-08-16T16:51:08.690Z,5.43
2022-08-16T16:53:41.455Z,5.22
2022-08-16T16:56:20.043Z,5.05
2022-08-16T16:58:56.597Z,7.90
2022-08-16T17:01:41.401Z,5.45
2022-08-16T17:04:22.257Z,4.57
2022-08-16T17:06:53.570Z,4.70
2022-08-16T17:09:24.659Z,5.72
2022-08-16T17:11:54.970Z,6.32
2022-08-16T17:14:33.376Z,6.30
2022-08-16T17:17:05.231Z,5.70
2022-08-16T17:19:32.851Z,5.50
2022-08-16T17:22:01.522Z,6.25
2022-08-16T17:24:39.475Z,5.72
2022-08-16T17:27:08.415Z,5.55
2022-08-16T17:29:42.928Z,5.78
2022-08-16T17:32:34.066Z,6.35
2022-08-16T17:35:10.166Z,6.47
2022-08-16T17:37:48.715Z,6.95
2022-08-16T17:40:46.914Z,5.85
2022-08-16T17:43:18.995Z,6.10
2022-08-16T17:45:47.496Z,5.13
2022-08-16T17:48:15.145Z,4.65
2022-08-16T17:50:48.758Z,5.43
2022-08-16T17:53:50.565Z,5.28
2022-08-16T17:56:18.419Z,5.63
2022-08-16T17:58:45.455Z,6.05
2022-08-16T18:01:13.329Z,6.20
2022-08-16T18:04:07.148Z,6.30
2022-08-16T18:06:29.504Z,6.88
2022-08-16T18:09:03.692Z,6.70
2022-08-16T18:11:35.540Z,6.35
2022-08-16T18:14:02.636Z,7.13
2022-08-16T18:16:32.697Z,6.22
2022-08-16T18:19:00.624Z,15.63
2022-08-16T18:21:46.504Z,9.20
2022-08-16T18:24:15.235Z,6.32
2022-08-16T18:26:42.411Z,6.43
2022-08-16T18:29:09.486Z,6.00
2022-08-16T18:31:36.741Z,5.90
2022-08-16T18:34:05.401Z,6.35
2022-08-16T18:36:34.076Z,6.47
2022-08-16T18:39:02.213Z,7.07
2022-08-16T18:41:30.931Z,6.43
2022-08-16T18:44:25.747Z,6.07
2022-08-16T18:46:50.727Z,5.88
2022-08-16T18:49:19.146Z,7.35
2022-08-16T18:51:46.526Z,5.72
2022-08-16T18:54:17.254Z,5.75
2022-08-16T18:56:56.389Z,5.25
2022-08-16T18:59:29.878Z,5.20
2022-08-16T19:02:00.336Z,5.10
2022-08-16T19:04:56.080Z,5.75
2022-08-16T19:07:22.025Z,5.45
2022-08-16T19:09:49.244Z,5.78
2022-08-16T19:12:16.335Z,6.25
2022-08-16T19:14:45.944Z,8.57
2022-08-16T19:17:12.954Z,7.38
2022-08-16T19:19:39.889Z,7.57
2022-08-16T19:22:06.885Z,6.03
2022-08-16T19:24:33.924Z,6.65
2022-08-16T19:27:01.675Z,7.15
2022-08-16T19:29:31.874Z,5.50
2022-08-16T19:31:58.745Z,5.50
2022-08-16T19:34:26.742Z,5.28
2022-08-16T19:36:54.436Z,5.40
2022-08-16T19:39:21.455Z,6.00
2022-08-16T19:41:53.874Z,7.07
2022-08-16T19:44:24.607Z,6.53
2022-08-16T19:46:51.815Z,6.10
2022-08-16T19:49:18.887Z,5.68
2022-08-16T19:51:47.001Z,7.88
2022-08-16T19:54:14.027Z,7.82
2022-08-16T19:56:41.104Z,10.60
2022-08-16T19:59:39.534Z,12.45
2022-08-16T20:01:55.216Z,8.52
2022-08-16T20:04:24.164Z,6.60
2022-08-16T20:06:52.353Z,5.25
2022-08-16T20:09:20.502Z,6.60
2022-08-16T20:11:48.557Z,5.72
2022-08-16T20:14:24.466Z,5.95
2022-08-16T20:16:54.855Z,5.97
2022-08-16T20:19:21.726Z,8.77
2022-08-16T20:21:48.835Z,5.35
2022-08-16T20:24:33.413Z,4.82
2022-08-16T20:27:06.420Z,4.90
2022-08-16T20:29:34.171Z,4.82
2022-08-16T20:32:01.243Z,4.93
2022-08-16T20:34:28.369Z,4.63
2022-08-16T20:36:55.469Z,5.32
2022-08-16T20:39:24.327Z,4.68
2022-08-16T20:41:51.560Z,5.10
2022-08-16T20:44:22.720Z,4.90
2022-08-16T20:46:50.094Z,5.50
2022-08-16T20:49:17.039Z,4.60
2022-08-16T20:51:49.946Z,4.40
2022-08-16T20:54:18.461Z,4.55
2022-08-16T20:56:45.354Z,5.18
2022-08-16T20:59:12.689Z,5.97
2022-08-16T21:01:45.897Z,6.22
2022-08-16T21:04:19.406Z,5.32
2022-08-16T21:06:54.266Z,4.80
2022-08-16T21:09:24.591Z,5.47
2022-08-16T21:11:53.219Z,4.68
2022-08-16T21:14:20.269Z,4.85
2022-08-16T21:16:47.300Z,4.50
2022-08-16T21:19:14.439Z,4.28
2022-08-16T21:21:41.411Z,4.40
2022-08-16T21:24:08.529Z,4.28
2022-08-16T21:26:38.845Z,4.32
2022-08-16T21:29:07.674Z,4.40
2022-08-16T21:31:40.581Z,4.40
2022-08-16T21:34:08.619Z,4.78
2022-08-16T21:36:36.467Z,4.82
2022-08-16T21:39:06.643Z,5.30
2022-08-16T21:41:35.336Z,4.97
2022-08-16T21:44:02.619Z,7.47
2022-08-16T21:46:29.620Z,5.63
2022-08-16T21:48:56.689Z,6.00
2022-08-16T21:51:23.700Z,5.88
2022-08-16T21:53:50.619Z,4.70
2022-08-16T21:56:17.919Z,5.07
2022-08-16T21:58:46.305Z,6.90
2022-08-16T22:01:38.588Z,7.45
2022-08-16T22:04:38.105Z,4.95
2022-08-16T22:06:52.689Z,7.63
2022-08-16T22:09:19.781Z,12.57
2022-08-16T22:11:46.894Z,7.90
2022-08-16T22:14:13.892Z,6.70
2022-08-16T22:16:42.127Z,6.88
2022-08-16T22:19:10.197Z,4.25
2022-08-16T22:21:38.481Z,5.20
2022-08-16T22:24:05.830Z,5.60
2022-08-16T22:26:36.808Z,5.18
2022-08-16T22:29:11.744Z,5.03
2022-08-16T22:31:40.651Z,4.80
2022-08-16T22:34:09.128Z,5.20
2022-08-16T22:36:36.553Z,4.78
2022-08-16T22:39:07.085Z,4.80
2022-08-16T22:41:35.517Z,4.63
2022-08-16T22:44:15.636Z,4.82
2022-08-16T22:46:42.828Z,5.32
2022-08-16T22:49:11.090Z,5.25
2022-08-16T22:51:39.447Z,4.70
2022-08-16T22:54:34.355Z,4.78
2022-08-16T22:56:53.877Z,5.28
2022-08-16T22:59:21.994Z,4.47
2022-08-16T23:01:48.936Z,5.03
2022-08-16T23:04:15.918Z,5.18
2022-08-16T23:06:42.885Z,5.00
2022-08-16T23:09:09.844Z,4.38
2022-08-16T23:11:36.956Z,4.20
2022-08-16T23:14:04.049Z,4.45
2022-08-16T23:16:34.769Z,4.50
2022-08-16T23:19:09.216Z,5.40
2022-08-16T23:21:38.715Z,4.40
2022-08-16T23:24:07.483Z,6.28
2022-08-16T23:26:44.721Z,5.97
2022-08-16T23:29:22.288Z,7.90
2022-08-16T23:31:57.385Z,5.10
2022-08-16T23:34:25.251Z,5.68
2022-08-16T23:36:52.339Z,4.55
2022-08-16T23:39:19.455Z,4.40
2022-08-16T23:41:46.347Z,4.07
2022-08-16T23:44:42.123Z,4.50
2022-08-16T23:49:57.197Z,4.28
2022-08-16T23:52:14.891Z,4.07
2022-08-16T23:54:41.934Z,4.22
2022-08-16T23:57:08.785Z,5.00
2022-08-16T23:59:52.495Z,5.43
